Time;durP1;ratioP1;P1;durP2;ratioP2;P2;SDS_P1;SDS_P2;PMS_P1;PMS_P2;Temp;Humidity;BMP_temperature;BMP_pressure;BME280_temperature;BME280_humidity;BME280_pressure;Samples;Min_cycle;Max_cycle;Signal;HPM_P1;HPM_P2
2022/03/08 00:00:33;;;;;;;21.45;12.38;;;;;;;-144.19;100.00;79276.84;6129531;23;19923;-87
2022/03/08 00:02:59;;;;;;;20.23;12.68;;;;;;;-144.19;100.00;79276.84;6155154;23;20029;-86
2022/03/08 00:05:26;;;;;;;21.48;12.32;;;;;;;-144.19;100.00;79274.88;6155577;23;20026;-86
2022/03/08 00:07:54;;;;;;;18.13;11.13;;;;;;;-144.19;100.00;79290.66;6131740;23;20026;-88
2022/03/08 00:10:20;;;;;;;18.80;10.50;;;;;;;-144.19;100.00;79286.72;6131953;23;20021;-88
2022/03/08 00:12:47;;;;;;;17.52;10.73;;;;;;;-144.19;100.00;79276.84;6156739;23;20022;-89
2022/03/08 00:15:18;;;;;;;21.20;10.45;;;;;;;-144.19;100.00;79286.72;6156028;23;20025;-89
2022/03/08 00:17:44;;;;;;;17.20;10.43;;;;;;;-144.19;100.00;79276.84;6156763;23;20017;-86
2022/03/08 00:20:12;;;;;;;15.15;9.00;;;;;;;-144.19;100.00;79296.56;6131651;23;20047;-86
2022/03/08 00:22:40;;;;;;;16.52;10.13;;;;;;;-144.19;100.00;79288.69;6130357;23;20117;-87
2022/03/08 00:25:09;;;;;;;18.42;10.10;;;;;;;-144.19;100.00;79257.16;6131422;23;20412;-87
2022/03/08 00:27:35;;;;;;;18.08;9.50;;;;;;;-144.19;100.00;79267.00;6156085;23;20454;-86
2022/03/08 00:30:05;;;;;;;16.08;9.18;;;;;;;-144.19;100.00;79274.88;6155394;23;20541;-87
2022/03/08 00:32:32;;;;;;;20.33;10.70;;;;;;;-144.19;100.00;79249.28;6128925;23;20014;-87
2022/03/08 00:34:58;;;;;;;17.83;10.52;;;;;;;-144.19;100.00;79251.25;6130876;23;20036;-85
2022/03/08 00:37:25;;;;;;;17.42;10.60;;;;;;;-144.19;100.00;79261.09;6129999;23;20027;-88
2022/03/08 00:39:52;;;;;;;15.90;9.95;;;;;;;-144.19;100.00;79267.00;6130599;23;20028;-87
2022/03/08 00:42:20;;;;;;;;;;;;;;;-144.19;100.00;79265.03;6129742;23;20446;-86
2022/03/08 00:44:46;;;;;;;16.67;9.75;;;;;;;-144.19;100.00;79272.91;6129585;23;19916;-88
2022/03/08 00:47:13;;;;;;;17.52;10.30;;;;;;;-144.19;100.00;79265.03;6153884;23;20028;-86
2022/03/08 00:49:40;;;;;;;20.63;11.93;;;;;;;-144.19;100.00;79253.22;6156102;23;20049;-89
2022/03/08 00:52:08;;;;;;;16.85;11.10;;;;;;;-144.19;100.00;79263.06;6129295;23;20056;-87
2022/03/08 00:54:35;;;;;;;16.40;10.55;;;;;;;-144.19;100.00;79251.25;6130231;23;20022;-88
2022/03/08 00:57:02;;;;;;;23.17;12.13;;;;;;;-144.19;100.00;79253.22;6153915;23;20024;-87
2022/03/08 00:59:29;;;;;;;22.15;11.50;;;;;;;-144.19;100.00;79274.88;6129248;23;20028;-86
2022/03/08 01:01:55;;;;;;;22.70;11.23;;;;;;;-144.19;100.00;79276.84;6154345;23;20024;-87
2022/03/08 01:04:22;;;;;;;17.70;10.60;;;;;;;-144.19;100.00;79280.78;6155889;23;20071;-86
2022/03/08 01:06:51;;;;;;;18.25;11.70;;;;;;;-144.19;100.00;79272.91;6128975;23;20092;-88
2022/03/08 01:09:17;;;;;;;18.38;11.40;;;;;;;-144.19;100.00;79272.91;6129811;23;20026;-88
2022/03/08 01:11:44;;;;;;;22.08;11.35;;;;;;;-144.19;100.00;79278.81;6127824;23;20446;-88
2022/03/08 01:14:10;;;;;;;25.52;11.18;;;;;;;-144.19;100.00;79288.69;6127768;23;20378;-85
2022/03/08 01:16:37;;;;;;;21.50;11.27;;;;;;;-144.19;100.00;79288.69;6128065;23;20124;-88
2022/03/08 01:19:05;;;;;;;18.92;10.43;;;;;;;-144.19;100.00;79300.50;6129450;23;20247;-87
2022/03/08 01:21:35;;;;;;;19.08;10.48;;;;;;;-144.19;100.00;79304.44;6154670;23;20021;-89
2022/03/08 01:24:04;;;;;;;19.95;10.65;;;;;;;-144.19;100.00;79316.25;6128794;23;20021;-86
2022/03/08 01:26:31;;;;;;;18.02;10.32;;;;;;;-144.19;100.00;79302.47;6128690;23;20578;-87
2022/03/08 01:28:58;;;;;;;17.60;10.38;;;;;;;-144.19;100.00;79292.63;6155241;23;20026;-89
2022/03/08 01:31:25;;;;;;;16.63;9.88;;;;;;;-144.19;100.00;79296.56;6127743;23;20028;-86
2022/03/08 01:33:54;;;;;;;17.17;10.50;;;;;;;-144.19;100.00;79328.06;6127228;23;20032;-87
2022/03/08 01:36:22;;;;;;;19.17;10.80;;;;;;;-144.19;100.00;79312.31;6154013;23;20056;-87
2022/03/08 01:38:49;;;;;;;18.98;10.40;;;;;;;-144.19;100.00;79328.06;6154399;23;20028;-89
2022/03/08 01:41:16;;;;;;;19.63;10.73;;;;;;;-144.19;100.00;79324.13;6127620;23;20092;-86
2022/03/08 01:43:43;;;;;;;20.63;11.73;;;;;;;-144.19;100.00;79316.25;6152699;23;20021;-87
2022/03/08 01:46:09;;;;;;;21.38;11.60;;;;;;;-144.19;100.00;79290.66;6153668;23;20368;-87
2022/03/08 01:48:38;;;;;;;21.95;12.48;;;;;;;-144.19;100.00;79290.66;6153848;23;20087;-86
2022/03/08 01:51:05;;;;;;;25.58;13.85;;;;;;;-144.19;100.00;79288.69;6127871;23;20021;-88
2022/03/08 01:53:33;;;;;;;22.73;11.98;;;;;;;-144.19;100.00;79261.09;6126507;23;20048;-87
2022/03/08 01:56:02;;;;;;;22.30;13.20;;;;;;;-144.19;100.00;79257.16;6128764;23;20233;-86
2022/03/08 01:58:29;;;;;;;24.02;12.80;;;;;;;-144.19;100.00;79251.25;6153512;23;20405;-87
2022/03/08 02:00:55;;;;;;;24.63;12.77;;;;;;;-144.19;100.00;79237.47;6127098;23;20045;-86
2022/03/08 02:03:22;;;;;;;21.80;12.50;;;;;;;-144.19;100.00;79233.53;6127213;23;20032;-86
2022/03/08 02:05:49;;;;;;;22.00;12.82;;;;;;;-144.19;100.00;79247.31;6152806;23;20017;-88
2022/03/08 02:08:15;;;;;;;20.83;11.98;;;;;;;-144.19;100.00;79257.16;6153263;23;20025;-86
2022/03/08 02:10:42;;;;;;;22.45;12.32;;;;;;;-144.19;100.00;79284.75;6126788;23;20021;-87
2022/03/08 02:13:08;;;;;;;24.00;13.25;;;;;;;-144.19;100.00;79272.91;6126210;23;20017;-88
2022/03/08 02:15:35;;;;;;;23.33;13.73;;;;;;;-144.19;100.00;79272.91;6126633;23;20025;-87
2022/03/08 02:18:02;;;;;;;23.23;12.30;;;;;;;-144.19;100.00;79278.81;6127558;23;20021;-88
2022/03/08 02:20:30;;;;;;;17.80;11.45;;;;;;;-144.19;100.00;79268.97;6152570;23;20131;-87
2022/03/08 02:22:57;;;;;;;20.70;11.60;;;;;;;-144.19;100.00;79274.88;6126005;23;20017;-86
2022/03/08 02:25:23;;;;;;;23.38;12.23;;;;;;;-144.19;100.00;79263.06;6153501;23;20022;-87
2022/03/08 02:27:52;;;;;;;20.92;13.48;;;;;;;-144.19;100.00;79268.97;6127478;23;20306;-87
2022/03/08 02:30:21;;;;;;;18.77;11.60;;;;;;;-144.19;100.00;79268.97;6127211;23;20026;-86
2022/03/08 02:32:48;;;;;;;22.45;12.38;;;;;;;-144.19;100.00;79265.03;6125044;23;20444;-86
2022/03/08 02:35:19;;;;;;;;;;;;;;;-144.19;100.00;79257.16;6127324;23;20021;-87
2022/03/08 02:37:58;;;;;;;18.40;10.45;;;;;;;-144.19;100.00;79268.97;6126452;23;19951;-86
2022/03/08 02:40:31;;;;;;;22.88;12.70;;;;;;;-144.19;100.00;79265.03;6126716;23;20104;-87
2022/03/08 02:42:57;;;;;;;20.88;11.48;;;;;;;-144.19;100.00;79265.03;6149055;23;20018;-87
2022/03/08 02:45:24;;;;;;;22.65;11.45;;;;;;;-144.19;100.00;79268.97;6126126;23;20018;-86
2022/03/08 02:47:51;;;;;;;21.35;12.77;;;;;;;-144.19;100.00;79268.97;6150666;23;20096;-88
2022/03/08 02:50:19;;;;;;;20.92;12.32;;;;;;;-144.19;100.00;79276.84;6126395;23;20093;-87
2022/03/08 02:52:48;;;;;;;18.00;11.50;;;;;;;-144.19;100.00;79292.63;6124599;23;20029;-86
2022/03/08 02:55:14;;;;;;;18.42;10.80;;;;;;;-144.19;100.00;79304.44;6126831;23;20022;-87
2022/03/08 02:57:41;;;;;;;20.17;11.63;;;;;;;-144.19;100.00;79316.25;6150062;23;20022;-88
2022/03/08 03:00:09;;;;;;;;;;;;;;;-144.19;100.00;79304.44;6125948;23;20026;-87
2022/03/08 03:02:36;;;;;;;22.25;12.43;;;;;;;-144.19;100.00;79316.25;6150982;23;20269;-87
2022/03/08 03:05:03;;;;;;;20.30;11.75;;;;;;;-144.19;100.00;79308.38;6126229;23;20104;-87
2022/03/08 03:07:30;;;;;;;19.95;11.90;;;;;;;-144.19;100.00;79316.25;6152048;23;20021;-87
2022/03/08 03:09:56;;;;;;;21.45;11.40;;;;;;;-144.19;100.00;79304.44;6125621;23;20028;-88
2022/03/08 03:12:23;;;;;;;19.80;11.80;;;;;;;-144.19;100.00;79302.47;6125665;23;20021;-85
2022/03/08 03:14:49;;;;;;;18.95;10.93;;;;;;;-144.19;100.00;79328.06;6154352;23;20021;-86
2022/03/08 03:17:17;;;;;;;20.80;11.73;;;;;;;-144.19;100.00;79320.19;6153800;23;20458;-88
2022/03/08 03:19:43;;;;;;;25.45;12.23;;;;;;;-144.19;100.00;79316.25;6152504;23;20273;-87
2022/03/08 03:22:10;;;;;;;21.40;11.57;;;;;;;-144.19;100.00;79320.19;6127355;23;20459;-87
2022/03/08 03:24:36;;;;;;;21.13;12.03;;;;;;;-144.19;100.00;79312.31;6127348;23;20226;-88
2022/03/08 03:27:03;;;;;;;20.88;12.30;;;;;;;-144.19;100.00;79312.31;6128499;23;20252;-87
2022/03/08 03:29:29;;;;;;;18.38;10.95;;;;;;;-144.19;100.00;79316.25;6154094;23;20357;-87
2022/03/08 03:31:56;;;;;;;20.05;11.90;;;;;;;-144.19;100.00;79335.94;6126948;23;20032;-88
2022/03/08 03:34:22;;;;;;;19.20;10.67;;;;;;;-144.19;100.00;79332.00;6127530;23;20028;-87
2022/03/08 03:36:49;;;;;;;19.87;12.57;;;;;;;-144.19;100.00;79335.94;6127513;23;20582;-87
2022/03/08 03:39:15;;;;;;;20.75;11.25;;;;;;;-144.19;100.00;79339.88;6153988;23;20060;-86
2022/03/08 03:41:41;;;;;;;20.40;11.63;;;;;;;-144.19;100.00;79339.88;6124110;23;20358;-86
2022/03/08 03:44:08;;;;;;;18.47;11.07;;;;;;;-144.19;100.00;79343.81;6127266;23;20718;-88
2022/03/08 03:46:34;;;;;;;23.45;12.40;;;;;;;-144.19;100.00;79347.78;6127253;23;20029;-87
2022/03/08 03:49:00;;;;;;;22.20;11.48;;;;;;;-144.19;100.00;79355.66;6128140;23;20024;-87
2022/03/08 03:51:28;;;;;;;21.70;11.73;;;;;;;-144.19;100.00;79351.72;6153525;23;20026;-89
2022/03/08 03:53:55;;;;;;;16.35;10.63;;;;;;;-144.19;100.00;79367.47;6153700;23;20027;-87
2022/03/08 03:56:21;;;;;;;20.23;10.38;;;;;;;-144.19;100.00;79373.38;6128157;23;20131;-87
2022/03/08 03:58:48;;;;;;;20.05;10.88;;;;;;;-144.19;100.00;79371.41;6127667;23;20060;-88
2022/03/08 04:01:15;;;;;;;22.90;11.48;;;;;;;-144.19;100.00;79379.28;6154015;23;20021;-87
2022/03/08 04:03:42;;;;;;;18.10;11.35;;;;;;;-144.19;100.00;79373.38;6126351;23;20041;-86
2022/03/08 04:06:08;;;;;;;19.27;10.50;;;;;;;-144.19;100.00;79371.41;6128517;23;20081;-86
2022/03/08 04:08:35;;;;;;;19.63;10.63;;;;;;;-144.19;100.00;79385.19;6127966;23;20056;-88
2022/03/08 04:11:01;;;;;;;17.40;10.45;;;;;;;-144.19;100.00;79393.06;6127988;23;20603;-86
2022/03/08 04:13:28;;;;;;;21.33;11.60;;;;;;;-144.19;100.00;79383.22;6152503;23;20032;-87
2022/03/08 04:15:54;;;;;;;19.08;10.70;;;;;;;-144.19;100.00;79373.38;6154421;23;20350;-88
2022/03/08 04:18:21;;;;;;;19.73;11.07;;;;;;;-144.19;100.00;79355.66;6154294;23;20025;-87
2022/03/08 04:20:47;;;;;;;19.98;11.68;;;;;;;-144.19;100.00;79363.53;6154103;23;20127;-87
2022/03/08 04:23:14;;;;;;;20.63;11.43;;;;;;;-144.19;100.00;79365.50;6153394;23;20050;-87
2022/03/08 04:25:40;;;;;;;18.35;10.20;;;;;;;-144.19;100.00;79367.47;6128293;23;20025;-86
2022/03/08 04:28:07;;;;;;;20.23;11.73;;;;;;;-144.19;100.00;79367.47;6152322;23;20032;-87
2022/03/08 04:30:34;;;;;;;19.65;9.90;;;;;;;-144.19;100.00;79379.28;6127559;23;20482;-86
2022/03/08 04:33:00;;;;;;;19.27;10.63;;;;;;;-144.19;100.00;79381.25;6127513;23;20021;-87
2022/03/08 04:35:26;;;;;;;18.35;11.15;;;;;;;-144.19;100.00;79383.22;6154145;23;20113;-87
2022/03/08 04:37:53;;;;;;;16.17;10.50;;;;;;;-144.19;100.00;79398.97;6128804;23;20346;-87
2022/03/08 04:40:20;;;;;;;12.80;8.20;;;;;;;-144.19;100.00;79389.13;6154630;23;20470;-86
2022/03/08 04:42:46;;;;;;;20.52;10.65;;;;;;;-144.19;100.00;79391.09;6151313;23;20021;-88
2022/03/08 04:45:13;;;;;;;18.48;10.43;;;;;;;-144.19;100.00;79406.88;6129464;23;20064;-86
2022/03/08 04:47:40;;;;;;;17.27;10.95;;;;;;;-144.19;100.00;79398.97;6156457;23;20027;-85
2022/03/08 04:50:10;;;;;;;22.13;12.55;;;;;;;-144.19;100.00;79398.97;6129388;23;20378;-87
2022/03/08 04:52:37;;;;;;;21.83;11.70;;;;;;;-144.19;100.00;79398.97;6152607;23;20089;-86
2022/03/08 04:55:04;;;;;;;18.88;11.45;;;;;;;-144.19;100.00;79398.97;6155712;23;20022;-87
2022/03/08 04:57:31;;;;;;;19.20;11.13;;;;;;;-144.19;100.00;79406.88;6129249;23;20021;-89
2022/03/08 04:59:57;;;;;;;20.02;10.98;;;;;;;-144.19;100.00;79426.56;6129190;23;20024;-89
2022/03/08 05:02:24;;;;;;;23.83;12.20;;;;;;;-144.19;100.00;79430.50;6129103;23;20053;-88
2022/03/08 05:04:51;;;;;;;21.13;11.98;;;;;;;-144.19;100.00;79422.63;6154797;23;20031;-88
2022/03/08 05:07:17;;;;;;;20.50;11.73;;;;;;;-144.19;100.00;79418.69;6155177;23;20022;-87
2022/03/08 05:09:43;;;;;;;17.95;11.23;;;;;;;-144.19;100.00;79414.75;6128013;23;20021;-88
2022/03/08 05:12:10;;;;;;;22.42;11.50;;;;;;;-144.19;100.00;79430.50;6127461;23;20117;-90
2022/03/08 05:14:36;;;;;;;21.55;11.45;;;;;;;-144.19;100.00;79418.69;6128145;23;20088;-89
2022/03/08 05:17:04;;;;;;;21.85;12.18;;;;;;;-144.19;100.00;79393.06;6154362;23;20030;-88
2022/03/08 05:19:30;;;;;;;;;;;;;;;-144.19;100.00;79391.09;6128176;23;20121;-87
2022/03/08 05:21:56;;;;;;;23.23;12.25;;;;;;;-144.19;100.00;79414.75;6127167;23;19920;-89
2022/03/08 05:24:23;;;;;;;22.67;12.45;;;;;;;-144.19;100.00;79418.69;6153734;23;20039;-88
2022/03/08 05:26:49;;;;;;;21.13;11.60;;;;;;;-144.19;100.00;79406.88;6128520;23;20017;-88
2022/03/08 05:29:16;;;;;;;19.20;11.50;;;;;;;-144.19;100.00;79398.97;6154890;23;20181;-88
2022/03/08 05:31:42;;;;;;;22.85;11.93;;;;;;;-144.19;100.00;79402.91;6127547;23;20032;-89
2022/03/08 05:34:10;;;;;;;22.17;12.05;;;;;;;-144.19;100.00;79397.00;6152992;23;20021;-89
2022/03/08 05:36:38;;;;;;;23.13;12.68;;;;;;;-144.19;100.00;79398.97;6127467;23;20410;-90
2022/03/08 05:39:04;;;;;;;18.85;11.75;;;;;;;-144.19;100.00;79398.97;6128875;23;20100;-91
2022/03/08 05:41:31;;;;;;;19.83;11.77;;;;;;;-144.19;100.00;79398.97;6129933;23;20108;-89
2022/03/08 05:43:57;;;;;;;24.77;13.68;;;;;;;-144.19;100.00;79397.00;6128913;23;20024;-86
2022/03/08 05:46:23;;;;;;;19.30;11.98;;;;;;;-144.19;100.00;79398.97;6155261;23;20028;-90
2022/03/08 05:48:56;;;;;;;26.92;11.32;;;;;;;-144.19;100.00;79414.75;6155239;23;20017;-90
2022/03/08 05:51:22;;;;;;;22.63;10.75;;;;;;;-144.19;100.00;79422.63;6128870;23;20470;-88
2022/03/08 05:53:49;;;;;;;23.70;13.00;;;;;;;-144.19;100.00;79430.50;6126061;23;20021;-88
2022/03/08 05:56:15;;;;;;;22.60;12.75;;;;;;;-144.19;100.00;79438.38;6128053;23;20027;-90
2022/03/08 05:58:42;;;;;;;21.23;11.68;;;;;;;-144.19;100.00;79430.50;6131443;23;20096;-89
2022/03/08 06:01:08;;;;;;;23.85;13.60;;;;;;;-144.19;100.00;79432.47;6128026;23;20303;-88
2022/03/08 06:03:35;;;;;;;21.65;12.55;;;;;;;-144.19;100.00;79428.53;6127199;23;20040;-87
2022/03/08 06:06:02;;;;;;;23.33;12.50;;;;;;;-144.19;100.00;79440.34;6127092;23;20047;-89
2022/03/08 06:08:29;;;;;;;23.95;13.93;;;;;;;-144.19;100.00;79430.50;6128659;23;20025;-90
2022/03/08 06:10:55;;;;;;;29.05;13.65;;;;;;;-144.19;100.00;79426.56;6125629;23;20105;-89
2022/03/08 06:13:22;;;;;;;24.05;12.85;;;;;;;-144.19;100.00;79424.59;6128104;23;20022;-88
2022/03/08 06:15:49;;;;;;;25.73;15.00;;;;;;;-144.19;100.00;79426.56;6127734;23;20477;-88
2022/03/08 06:18:15;;;;;;;24.42;13.07;;;;;;;-144.19;100.00;79428.53;6128094;23;20025;-88
2022/03/08 06:20:42;;;;;;;21.83;13.88;;;;;;;-144.19;100.00;79416.72;6128928;23;20022;-85
2022/03/08 06:23:08;;;;;;;25.75;14.77;;;;;;;-144.19;100.00;79406.88;6128674;23;20013;-87
2022/03/08 06:25:35;;;;;;;19.30;11.88;;;;;;;-144.19;100.00;79410.81;6129093;23;20455;-87
2022/03/08 06:28:01;;;;;;;24.90;13.52;;;;;;;-144.19;100.00;79422.63;6128636;23;20160;-88
2022/03/08 06:30:27;;;;;;;27.23;14.98;;;;;;;-144.19;100.00;79391.09;6128711;23;20028;-89
2022/03/08 06:32:54;;;;;;;30.55;17.02;;;;;;;-144.19;100.00;79363.53;6152033;23;20052;-85
2022/03/08 06:35:20;;;;;;;29.98;16.48;;;;;;;-144.19;100.00;79349.75;6128976;23;20036;-90
2022/03/08 06:37:47;;;;;;;28.92;15.75;;;;;;;-144.19;100.00;79351.72;6128372;23;20023;-86
2022/03/08 06:40:13;;;;;;;26.65;15.90;;;;;;;-144.19;100.00;79345.81;6128322;23;20021;-86
2022/03/08 06:42:40;;;;;;;28.15;15.48;;;;;;;-144.19;100.00;79328.06;6124822;23;20029;-86
2022/03/08 06:45:08;;;;;;;32.40;18.48;;;;;;;-144.19;100.00;79308.38;6135586;23;20073;-89
2022/03/08 06:47:36;;;;;;;30.58;15.40;;;;;;;-144.19;100.00;79282.75;6129948;23;20021;-89
2022/03/08 06:50:03;;;;;;;23.92;16.50;;;;;;;-144.19;100.00;79288.69;6131306;23;20053;-88
2022/03/08 06:52:29;;;;;;;28.55;15.35;;;;;;;-144.19;100.00;79296.56;6130259;23;20049;-88
2022/03/08 06:54:55;;;;;;;24.05;15.18;;;;;;;-144.19;100.00;79304.44;6156982;23;20022;-90
2022/03/08 06:57:22;;;;;;;32.83;15.85;;;;;;;-144.19;100.00;79274.88;6131121;23;20534;-90
2022/03/08 06:59:49;;;;;;;27.17;16.55;;;;;;;-144.19;100.00;79265.03;6130453;23;20041;-88
2022/03/08 07:02:15;;;;;;;30.13;18.42;;;;;;;-144.19;100.00;79257.16;6154165;23;20105;-89
2022/03/08 07:04:42;;;;;;;31.25;16.15;;;;;;;-144.19;100.00;79237.47;6131604;23;20033;-89
2022/03/08 07:07:09;;;;;;;26.33;16.25;;;;;;;-144.19;100.00;79229.59;6131282;23;20042;-89
2022/03/08 07:09:35;;;;;;;29.83;16.00;;;;;;;-144.19;100.00;79217.75;6132427;23;20330;-89
2022/03/08 07:12:02;;;;;;;25.70;15.50;;;;;;;-144.19;100.00;79241.41;6130818;23;20105;-88
2022/03/08 07:14:36;;;;;;;31.00;16.95;;;;;;;-144.19;100.00;79255.19;6132859;23;20080;-90
2022/03/08 07:17:06;;;;;;;28.23;16.42;;;;;;;-144.19;100.00;79245.34;6131768;23;20466;-89
2022/03/08 07:19:32;;;;;;;30.23;17.20;;;;;;;-144.19;100.00;79237.47;6132103;23;20097;-90
2022/03/08 07:21:59;;;;;;;32.17;17.95;;;;;;;-144.19;100.00;79221.72;6131426;23;20060;-90
2022/03/08 07:24:25;;;;;;;30.50;17.35;;;;;;;-144.19;100.00;79221.72;6132100;23;20018;-87
2022/03/08 07:26:52;;;;;;;33.13;18.35;;;;;;;-144.19;100.00;79205.94;6132226;23;20421;-90
2022/03/08 07:29:18;;;;;;;35.03;19.42;;;;;;;-144.19;100.00;79209.88;6132772;23;20049;-88
2022/03/08 07:31:45;;;;;;;29.48;17.25;;;;;;;-144.19;100.00;79203.97;6132397;23;20068;-88
2022/03/08 07:34:23;;;;;;;31.88;19.60;;;;;;;-144.19;100.00;79174.44;6134570;23;20598;-88
2022/03/08 07:36:50;;;;;;;34.40;19.77;;;;;;;-144.19;100.00;79166.56;6132426;23;20056;-90
2022/03/08 07:39:20;;;;;;;33.20;18.98;;;;;;;-144.19;100.00;79142.91;6133345;23;20022;-88
2022/03/08 07:41:49;;;;;;;29.30;17.90;;;;;;;-144.19;100.00;79131.09;6132879;23;20387;-90
2022/03/08 07:44:16;;;;;;;;;;;;;;;-144.19;100.00;79119.28;6134356;23;20013;-88
2022/03/08 07:46:46;;;;;;;31.75;17.67;;;;;;;-144.19;100.00;79103.53;6133516;23;19917;-87
2022/03/08 07:49:13;;;;;;;29.27;17.50;;;;;;;-144.19;100.00;79095.66;6131582;23;20022;-89
2022/03/08 07:51:52;;;;;;;29.27;16.88;;;;;;;-144.19;100.00;79072.00;6133087;23;20024;-89
2022/03/08 07:54:21;;;;;;;32.38;17.92;;;;;;;-144.19;100.00;79064.13;6130119;23;20022;-88
2022/03/08 07:56:50;;;;;;;31.27;17.63;;;;;;;-144.19;100.00;79036.56;6131933;23;20398;-88
2022/03/08 07:59:19;;;;;;;28.73;16.98;;;;;;;-144.19;100.00;79012.91;6132086;23;20017;-91
2022/03/08 08:01:46;;;;;;;30.35;17.15;;;;;;;-144.19;100.00;78999.13;6128958;23;20017;-88
2022/03/08 08:04:16;;;;;;;28.63;16.20;;;;;;;-144.19;100.00;78981.41;6131323;23;20013;-89
2022/03/08 08:06:43;;;;;;;26.90;16.02;;;;;;;-144.19;100.00;78967.63;6132011;23;20025;-88
2022/03/08 08:09:09;;;;;;;29.45;16.40;;;;;;;-144.19;100.00;78949.91;6130814;23;20503;-89
2022/03/08 08:11:36;;;;;;;27.90;16.15;;;;;;;-144.19;100.00;78938.06;6130990;23;20423;-88
2022/03/08 08:14:03;;;;;;;25.73;15.73;;;;;;;-144.19;100.00;78910.50;6130220;23;20100;-89
2022/03/08 08:16:29;;;;;;;39.95;19.77;;;;;;;-144.19;100.00;78902.63;6131168;23;20485;-90
2022/03/08 08:19:03;;;;;;;29.52;16.10;;;;;;;-144.19;100.00;78879.00;6131282;23;20378;-87
2022/03/08 08:21:30;;;;;;;28.40;16.80;;;;;;;-144.19;100.00;78863.22;6157538;23;20061;-88
2022/03/08 08:23:56;;;;;;;27.50;15.18;;;;;;;-144.19;100.00;78839.59;6129230;23;20089;-87
2022/03/08 08:26:26;;;;;;;24.00;15.60;;;;;;;-144.19;100.00;78825.81;6157058;23;20064;-89
2022/03/08 08:28:55;;;;;;;26.65;16.38;;;;;;;-144.19;100.00;78804.16;6130597;23;20264;-87
2022/03/08 08:31:23;;;;;;;25.67;15.18;;;;;;;-144.19;100.00;78792.34;6156810;23;20081;-88
2022/03/08 08:33:50;;;;;;;22.10;13.63;;;;;;;-144.19;100.00;78756.88;6129476;23;20014;-87
2022/03/08 08:36:17;;;;;;;24.85;14.95;;;;;;;-144.19;100.00;78735.22;6132772;23;20056;-87
2022/03/08 08:38:43;;;;;;;22.35;13.48;;;;;;;-144.19;100.00;78717.50;6155233;23;20545;-86
2022/03/08 08:41:10;;;;;;;22.27;13.88;;;;;;;-144.19;100.00;78693.84;6131697;23;20026;-87
2022/03/08 08:43:36;;;;;;;20.30;12.57;;;;;;;-144.19;100.00;78684.00;6129768;23;20470;-87
2022/03/08 08:46:03;;;;;;;22.30;14.57;;;;;;;-144.19;100.00;78668.25;6157193;23;20347;-88
2022/03/08 08:48:29;;;;;;;20.17;13.45;;;;;;;-144.19;100.00;78662.34;6130708;23;20027;-88
2022/03/08 08:50:56;;;;;;;20.50;11.98;;;;;;;-144.19;100.00;78619.03;6130842;23;20017;-88
2022/03/08 08:53:23;;;;;;;;;;;;;;;-144.19;100.00;78559.94;6155611;23;20022;-87
2022/03/08 08:55:50;;;;;;;19.17;11.38;;;;;;;-144.19;100.00;78579.63;6130838;23;20382;-87
2022/03/08 08:58:16;;;;;;;19.08;11.43;;;;;;;-144.19;100.00;78567.81;6150678;23;20031;-87
2022/03/08 09:00:43;;;;;;;20.02;12.82;;;;;;;-144.19;100.00;78528.44;6129762;23;20021;-87
2022/03/08 09:03:10;;;;;;;14.63;8.52;;;;;;;-144.19;100.00;78489.03;6149842;23;20028;-84
2022/03/08 09:05:36;;;;;;;13.43;7.50;;;;;;;-144.19;100.00;78477.22;6154780;23;20075;-87
2022/03/08 09:08:03;;;;;;;13.53;8.47;;;;;;;-144.19;100.00;78449.66;6156478;23;20025;-87
2022/03/08 09:10:30;;;;;;;12.90;6.95;;;;;;;-144.19;100.00;78441.78;6153939;23;20028;-86
2022/03/08 09:12:56;;;;;;;14.67;8.23;;;;;;;-144.19;100.00;78412.22;6128619;23;20022;-88
2022/03/08 09:15:23;;;;;;;11.77;8.13;;;;;;;-144.19;100.00;78386.63;6157348;23;20101;-85
2022/03/08 09:17:49;;;;;;;12.55;8.25;;;;;;;-144.19;100.00;78374.81;6156273;23;20029;-85
2022/03/08 09:20:16;;;;;;;12.18;7.45;;;;;;;-144.19;100.00;78378.75;6155324;23;20017;-86
2022/03/08 09:22:47;;;;;;;10.98;7.43;;;;;;;-144.19;100.00;78363.00;6130030;23;20026;-87
2022/03/08 09:25:14;;;;;;;12.50;8.20;;;;;;;-144.19;100.00;78335.44;6153789;23;20017;-88
2022/03/08 09:27:40;;;;;;;13.85;7.43;;;;;;;-144.19;100.00;78311.81;6155993;23;20241;-87
2022/03/08 09:30:07;;;;;;;13.05;7.90;;;;;;;-144.19;100.00;78303.94;6129299;23;20021;-87
2022/03/08 09:32:34;;;;;;;11.43;7.47;;;;;;;-144.19;100.00;78303.94;6126044;23;20100;-87
2022/03/08 09:35:00;;;;;;;10.85;7.18;;;;;;;-144.19;94.53;78268.47;6129534;23;20096;-87
2022/03/08 09:37:27;;;;;;;16.00;8.17;;;;;;;-144.19;95.16;78248.78;6129926;23;20027;-87
2022/03/08 09:39:53;;;;;;;12.17;7.20;;;;;;;-144.19;95.02;78250.75;6129166;23;20017;-85
2022/03/08 09:42:20;;;;;;;14.10;6.43;;;;;;;-144.19;93.40;78233.03;6128420;23;20021;-87
2022/03/08 09:44:48;;;;;;;12.32;6.45;;;;;;;-144.19;91.54;78229.09;6130185;23;20018;-86
2022/03/08 09:47:16;;;;;;;9.93;6.90;;;;;;;-144.19;89.92;78211.38;6130255;23;20024;-84
2022/03/08 09:49:42;;;;;;;11.25;6.95;;;;;;;-144.19;92.34;78185.78;6154833;23;20485;-86
2022/03/08 09:52:09;;;;;;;9.98;6.90;;;;;;;-144.19;88.32;78162.13;6128903;23;20018;-87
2022/03/08 09:54:36;;;;;;;10.57;6.40;;;;;;;-144.19;87.67;78150.31;6156487;23;20168;-89
2022/03/08 09:57:13;;;;;;;7.90;5.70;;;;;;;-144.19;84.45;78138.50;6155785;23;20080;-87
2022/03/08 09:59:40;;;;;;;10.18;6.18;;;;;;;-144.19;83.82;78116.84;6130034;23;20021;-88
2022/03/08 10:02:07;;;;;;;10.98;5.68;;;;;;;-144.19;84.51;78099.13;6128493;23;20067;-88
2022/03/08 10:04:34;;;;;;;10.98;5.82;;;;;;;-144.19;81.44;78079.44;6129915;23;20068;-88
2022/03/08 10:07:20;;;;;;;9.38;5.40;;;;;;;-144.19;81.03;78051.88;6134316;23;20025;-87
2022/03/08 10:09:57;;;;;;;8.35;4.78;;;;;;;-144.19;77.03;78016.41;6129890;23;20021;-86
2022/03/08 10:12:24;;;;;;;9.05;5.60;;;;;;;-144.19;78.65;77998.69;6127741;23;20060;-87
2022/03/08 10:14:51;;;;;;;;;;;;;;;-144.19;77.89;77971.13;6129192;23;20028;-87
2022/03/08 10:17:37;;;;;;;7.93;4.85;;;;;;;-144.19;73.29;77988.84;6127385;23;19917;-87
2022/03/08 10:20:06;;;;;;;9.13;5.25;;;;;;;-144.19;75.45;77941.59;6128688;23;20067;-88
2022/03/08 10:22:36;;;;;;;8.00;4.70;;;;;;;-144.19;75.27;77917.97;6127655;23;20025;-89
2022/03/08 10:25:20;;;;;;;4.97;4.43;;;;;;;-144.19;72.77;77894.34;6128417;23;20023;-86
2022/03/08 10:27:56;;;;;;;8.20;4.65;;;;;;;-144.19;70.74;77851.03;6129143;23;20029;-87
2022/03/08 10:30:30;;;;;;;11.50;6.07;;;;;;;-144.19;70.51;77827.38;6128967;23;20092;-86
2022/03/08 10:33:02;;;;;;;9.73;4.60;;;;;;;-144.19;67.92;77799.81;6127907;23;20477;-86
2022/03/08 10:35:31;;;;;;;8.70;5.85;;;;;;;-144.19;66.65;77791.94;6155948;23;20028;-85
2022/03/08 10:38:04;;;;;;;11.50;4.38;;;;;;;-144.19;65.63;77736.81;6153912;23;20022;-89
2022/03/08 10:40:32;;;;;;;6.95;3.95;;;;;;;-144.19;64.75;77669.88;6128371;23;20105;-87
2022/03/08 10:43:01;;;;;;;7.93;4.10;;;;;;;-144.19;63.49;77579.31;6126759;23;20029;-86
2022/03/08 10:45:29;;;;;;;6.05;3.95;;;;;;;-144.19;59.47;77549.75;6127691;23;20541;-86
2022/03/08 10:47:56;;;;;;;6.25;3.90;;;;;;;-144.19;58.76;77575.38;6127223;23;20024;-87
2022/03/08 10:50:25;;;;;;;6.07;4.13;;;;;;;-144.19;58.37;77618.69;6153493;23;20064;-88
2022/03/08 10:52:54;;;;;;;6.57;3.67;;;;;;;-144.19;55.02;77571.44;6126997;23;20092;-86
2022/03/08 10:55:26;;;;;;;6.95;4.05;;;;;;;-144.19;55.50;77561.59;6127854;23;20116;-88
2022/03/08 10:58:01;;;;;;;6.13;4.20;;;;;;;-144.19;54.71;77567.50;6127648;23;20051;-88
2022/03/08 11:00:30;;;;;;;7.57;3.88;;;;;;;-144.19;55.10;77543.84;6127174;23;20028;-89